Portada
METAR-TAF:

METAR-TAF

Aeroports :

Tindouf, Algèria

latitud: 27-40N, longitud: 008-08W, altitud: 431 m

Observació

L'informe es va fer fa 48 minuts, a les 15:00 UTC
Vent 6 kt del Sud
Temperatura 28°C
Pressió 1017 hPa
Visibilitat 10 km o més
sense núvols per sota de 1500 mi sense presència de cumulonimbus.

METAR: DAOF 261500Z 17006KT CAVOK 28/// Q1017

Hora: 16:48 (15:48 UTC)

Pronòstic

L'informe es va fer fa 1 hora i 48 minuts, a les 14:00 UTC
Pronòstic vàlid del 26 a les 15 UTC al 26 a les 24 UTC
Vent 6 kt del Nord-Est
Visibilitat 10 km o més
sense núvols per sota de 1500 mi sense presència de cumulonimbus.

TAF: DAOF 261400Z 2615/2624 04006KT CAVOK

Observacions i pronòstics meteorològics de més de 4000 aeroports (METAR i TAF).

Les estacions disponibles són els punts grocs i vermells al mapa.

Posi el ratolí al punt desitjat per veure el nom de l'estació.

Feu clic per veure les observacions i els pronòstics meteorològics.

Per canviar el mapa: feu clic els botons verds amb una creu de color negre per apropar; al botó verd amb un guió per allunyar la imatge; o en les fletxes verdes per a mapes adjacents.


METAR-TAF: